createdAt,value
2023-04-22T00:00:59.403Z,11.40
2023-04-22T00:03:26.258Z,13.43
2023-04-22T00:05:52.972Z,9.65
2023-04-22T00:08:19.382Z,14.43
2023-04-22T00:10:45.698Z,11.02
2023-04-22T00:13:12.037Z,11.60
2023-04-22T00:15:38.668Z,9.60
2023-04-22T00:18:05.167Z,12.55
2023-04-22T00:20:31.500Z,7.90
2023-04-22T00:22:57.825Z,9.57
2023-04-22T00:25:24.148Z,14.70
2023-04-22T00:27:50.472Z,15.40
2023-04-22T00:30:16.785Z,10.40
2023-04-22T00:32:43.180Z,15.35
2023-04-22T00:35:09.639Z,8.85
2023-04-22T00:37:36.015Z,12.23
2023-04-22T00:40:02.407Z,10.55
2023-04-22T00:42:29.420Z,8.75
2023-04-22T00:44:55.793Z,11.13
2023-04-22T00:47:22.386Z,11.13
2023-04-22T00:49:50.037Z,11.98
2023-04-22T00:52:16.352Z,11.23
2023-04-22T00:54:42.733Z,14.93
2023-04-22T00:57:09.089Z,12.80
2023-04-22T00:59:35.475Z,8.48
2023-04-22T01:02:03.640Z,8.60
2023-04-22T01:04:30.386Z,11.25
2023-04-22T01:06:57.478Z,8.38
2023-04-22T01:09:24.307Z,8.40
2023-04-22T01:11:50.927Z,10.02
2023-04-22T01:14:17.316Z,10.52
2023-04-22T01:16:44.860Z,7.88
2023-04-22T01:19:11.870Z,8.23
2023-04-22T01:21:39.647Z,9.93
2023-04-22T01:24:07.079Z,9.90
2023-04-22T01:26:33.488Z,9.07
2023-04-22T01:29:01.949Z,15.98
2023-04-22T01:31:29.336Z,10.85
2023-04-22T01:33:56.105Z,9.73
2023-04-22T01:36:22.490Z,12.43
2023-04-22T01:38:48.912Z,12.65
2023-04-22T01:41:15.253Z,9.02
2023-04-22T01:43:42.835Z,7.35
2023-04-22T01:46:09.916Z,7.43
2023-04-22T01:48:36.646Z,16.92
2023-04-22T01:51:03.347Z,10.98
2023-04-22T01:53:30.125Z,10.10
2023-04-22T01:55:56.486Z,9.43
2023-04-22T01:58:22.785Z,8.15
2023-04-22T02:00:49.116Z,9.55
2023-04-22T02:03:15.563Z,12.25
2023-04-22T02:05:42.049Z,7.03
2023-04-22T02:08:08.350Z,8.30
2023-04-22T02:10:34.644Z,7.07
2023-04-22T02:13:00.952Z,10.77
2023-04-22T02:15:27.257Z,10.18
2023-04-22T02:17:53.569Z,10.48
2023-04-22T02:20:19.964Z,12.57
2023-04-22T02:22:46.359Z,8.70
2023-04-22T02:25:12.655Z,11.27
2023-04-22T02:27:38.950Z,11.07
2023-04-22T02:30:06.170Z,10.25
2023-04-22T02:32:32.615Z,11.23
2023-04-22T02:34:59.046Z,11.18
2023-04-22T02:37:25.360Z,12.30
2023-04-22T02:39:51.655Z,8.23
2023-04-22T02:42:18.106Z,10.27
2023-04-22T02:44:44.397Z,10.70
2023-04-22T02:47:11.077Z,8.40
2023-04-22T02:49:37.641Z,14.25
2023-04-22T02:52:05.347Z,11.15
2023-04-22T02:54:31.652Z,10.50
2023-04-22T02:56:57.946Z,10.02
2023-04-22T02:59:24.293Z,8.23
2023-04-22T03:01:50.646Z,12.88
2023-04-22T03:04:17.231Z,8.50
2023-04-22T03:06:43.759Z,11.02
2023-04-22T03:09:10.059Z,7.75
2023-04-22T03:11:36.370Z,8.48
2023-04-22T03:14:02.660Z,10.82
2023-04-22T03:16:29.075Z,14.52
2023-04-22T03:18:55.422Z,12.60
2023-04-22T03:21:21.831Z,11.45
2023-04-22T03:23:48.153Z,10.48
2023-04-22T03:26:14.490Z,11.35
2023-04-22T03:28:40.802Z,11.07
2023-04-22T03:31:07.143Z,10.00
2023-04-22T03:33:33.479Z,7.95
2023-04-22T03:35:59.804Z,10.95
2023-04-22T03:38:26.204Z,12.07
2023-04-22T03:40:52.555Z,11.05
2023-04-22T03:43:18.843Z,9.80
2023-04-22T03:45:45.474Z,10.77
2023-04-22T03:48:11.822Z,11.05
2023-04-22T03:50:38.184Z,10.40
2023-04-22T03:53:04.742Z,9.23
2023-04-22T03:55:31.102Z,12.18
2023-04-22T03:57:57.409Z,7.95
2023-04-22T04:00:23.750Z,9.23
2023-04-22T04:02:50.230Z,14.07
2023-04-22T04:05:16.982Z,13.18
2023-04-22T04:07:43.348Z,12.75
2023-04-22T04:10:11.139Z,11.02
2023-04-22T04:12:37.536Z,9.50
2023-04-22T04:15:04.367Z,10.90
2023-04-22T04:17:30.805Z,9.73
2023-04-22T04:19:57.114Z,9.35
2023-04-22T04:22:23.446Z,11.10
2023-04-22T04:24:49.806Z,9.30
2023-04-22T04:27:16.195Z,12.40
2023-04-22T04:29:42.735Z,11.35
2023-04-22T04:32:09.190Z,7.70
2023-04-22T04:34:35.593Z,8.90
2023-04-22T04:37:01.954Z,9.98
2023-04-22T04:39:28.273Z,10.35
2023-04-22T04:41:55.258Z,9.93
2023-04-22T04:44:21.873Z,9.45
2023-04-22T04:46:48.402Z,11.23
2023-04-22T04:49:14.737Z,7.50
2023-04-22T04:51:41.078Z,10.93
2023-04-22T04:54:07.394Z,9.45
2023-04-22T04:56:33.769Z,10.50
2023-04-22T04:59:00.081Z,10.88
2023-04-22T05:01:26.500Z,8.98
2023-04-22T05:03:52.922Z,14.07
2023-04-22T05:06:19.378Z,10.93
2023-04-22T05:08:45.698Z,9.30
2023-04-22T05:11:12.004Z,10.15
2023-04-22T05:13:38.306Z,9.07
2023-04-22T05:16:04.823Z,9.82
2023-04-22T05:18:31.417Z,8.52
2023-04-22T05:20:57.709Z,10.70
2023-04-22T05:23:24.214Z,12.32
2023-04-22T05:25:52.787Z,9.82
2023-04-22T05:28:19.668Z,9.00
2023-04-22T05:30:45.974Z,10.77
2023-04-22T05:33:12.351Z,12.57
2023-04-22T05:35:38.758Z,11.88
2023-04-22T05:38:05.088Z,8.05
2023-04-22T05:40:31.401Z,10.13
2023-04-22T05:42:57.729Z,8.15
2023-04-22T05:45:24.056Z,9.95
2023-04-22T05:47:50.425Z,9.05
2023-04-22T05:50:16.765Z,10.55
2023-04-22T05:52:43.095Z,10.65
2023-04-22T05:55:09.615Z,6.90
2023-04-22T05:57:35.978Z,8.48
2023-04-22T06:00:04.288Z,9.23
2023-04-22T06:02:30.741Z,7.50
2023-04-22T06:04:57.658Z,8.13
2023-04-22T06:07:24.184Z,8.80
2023-04-22T06:09:51.103Z,8.18
2023-04-22T06:12:19.762Z,8.57
2023-04-22T06:14:46.122Z,7.22
2023-04-22T06:17:12.470Z,16.10
2023-04-22T06:19:39.004Z,5.72
2023-04-22T06:22:05.603Z,10.18
2023-04-22T06:24:31.923Z,8.63
2023-04-22T06:26:58.272Z,8.70
2023-04-22T06:29:24.638Z,8.35
2023-04-22T06:31:51.002Z,7.50
2023-04-22T06:34:17.379Z,7.07
2023-04-22T06:36:44.277Z,9.98
2023-04-22T06:39:10.605Z,8.80
2023-04-22T06:41:36.984Z,7.75
2023-04-22T06:44:03.348Z,8.15
2023-04-22T06:46:29.763Z,6.53
2023-04-22T06:48:56.056Z,9.07
2023-04-22T06:51:22.480Z,9.55
2023-04-22T06:53:48.806Z,5.07
2023-04-22T06:56:15.148Z,9.95
2023-04-22T06:58:41.481Z,10.07
2023-04-22T07:01:07.814Z,9.60
2023-04-22T07:03:34.267Z,11.15
2023-04-22T07:06:00.844Z,6.22
2023-04-22T07:08:27.137Z,8.07
2023-04-22T07:10:53.835Z,7.65
2023-04-22T07:13:20.150Z,7.80
2023-04-22T07:15:46.531Z,11.15
2023-04-22T07:18:12.850Z,9.63
2023-04-22T07:20:39.195Z,8.00
2023-04-22T07:23:05.517Z,8.35
2023-04-22T07:25:31.836Z,6.65
2023-04-22T07:27:58.154Z,6.75
2023-04-22T07:30:24.770Z,7.15
2023-04-22T07:32:51.194Z,6.88
2023-04-22T07:35:17.682Z,5.93
2023-04-22T07:37:44.090Z,11.02
2023-04-22T07:40:11.025Z,7.18
2023-04-22T07:42:39.028Z,8.23
2023-04-22T07:45:06.602Z,7.10
2023-04-22T07:47:32.999Z,6.20
2023-04-22T07:49:59.318Z,7.22
2023-04-22T07:52:25.721Z,5.53
2023-04-22T07:54:52.057Z,7.30
2023-04-22T07:57:18.367Z,6.43
2023-04-22T07:59:44.656Z,5.32
2023-04-22T08:02:10.987Z,8.57
2023-04-22T08:04:37.402Z,6.03
2023-04-22T08:07:17.036Z,4.28
2023-04-22T08:09:43.797Z,6.05
2023-04-22T08:12:10.094Z,6.30
2023-04-22T08:14:36.407Z,6.05
2023-04-22T08:17:02.708Z,6.28
2023-04-22T08:19:29.008Z,7.85
2023-04-22T08:21:55.315Z,5.72
2023-04-22T08:24:21.724Z,5.53
2023-04-22T08:26:48.040Z,4.05
2023-04-22T08:29:14.416Z,9.82
2023-04-22T08:31:41.946Z,3.95
2023-04-22T08:34:08.376Z,5.32
2023-04-22T08:36:34.686Z,4.68
2023-04-22T08:39:01.055Z,6.15
2023-04-22T08:41:28.272Z,4.90
2023-04-22T08:43:55.755Z,4.38
2023-04-22T08:46:22.315Z,10.48
2023-04-22T08:48:48.885Z,5.25
2023-04-22T08:51:16.927Z,4.57
2023-04-22T08:53:44.325Z,7.47
2023-04-22T08:56:12.715Z,4.43
2023-04-22T08:58:41.554Z,7.47
2023-04-22T09:01:09.092Z,4.85
2023-04-22T09:03:38.099Z,5.60
2023-04-22T09:06:05.011Z,5.78
2023-04-22T09:08:34.345Z,4.25
2023-04-22T09:11:00.646Z,5.88
2023-04-22T09:13:27.329Z,4.00
2023-04-22T09:15:53.699Z,4.68
2023-04-22T09:18:20.684Z,3.72
2023-04-22T09:20:48.578Z,4.90
2023-04-22T09:23:15.366Z,7.00
2023-04-22T09:25:42.039Z,5.00
2023-04-22T09:28:12.533Z,5.70
2023-04-22T09:30:38.837Z,3.95
2023-04-22T09:33:07.321Z,4.53
2023-04-22T09:35:36.495Z,5.75
2023-04-22T09:38:05.355Z,4.82
2023-04-22T09:40:32.008Z,5.90
2023-04-22T09:43:01.576Z,3.65
2023-04-22T09:45:33.275Z,5.00
2023-04-22T09:48:02.869Z,5.15
2023-04-22T09:50:29.341Z,4.20
2023-04-22T09:53:00.667Z,4.03
2023-04-22T09:55:29.462Z,4.70
2023-04-22T09:57:58.081Z,5.20
2023-04-22T10:00:29.789Z,5.47
2023-04-22T10:02:57.210Z,6.43
2023-04-22T10:05:24.213Z,5.18
2023-04-22T10:07:51.246Z,7.05
2023-04-22T10:10:17.590Z,5.20
2023-04-22T10:12:44.665Z,3.65
2023-04-22T10:15:11.143Z,3.47
2023-04-22T10:17:39.049Z,4.95
2023-04-22T10:20:12.735Z,5.72
2023-04-22T10:22:41.330Z,3.63
2023-04-22T10:25:27.983Z,3.22
2023-04-22T10:28:16.042Z,2.22
2023-04-22T10:30:42.522Z,3.72
2023-04-22T10:33:21.091Z,2.80
2023-04-22T10:36:07.302Z,2.70
2023-04-22T10:38:59.693Z,2.75
2023-04-22T10:41:29.933Z,3.70
2023-04-22T10:43:58.542Z,3.55
2023-04-22T10:46:30.989Z,5.38
2023-04-22T10:48:57.605Z,4.95
2023-04-22T10:51:59.949Z,2.55
2023-04-22T10:54:27.359Z,3.30
2023-04-22T10:57:01.944Z,2.17
2023-04-22T10:59:28.279Z,3.58
2023-04-22T11:01:54.957Z,5.45
2023-04-22T11:04:23.926Z,3.50
2023-04-22T11:07:22.513Z,2.97
2023-04-22T11:09:58.745Z,3.83
2023-04-22T11:12:37.149Z,3.17
2023-04-22T11:15:07.378Z,3.00
2023-04-22T11:17:34.344Z,3.22
2023-04-22T11:20:01.587Z,4.20
2023-04-22T11:22:27.896Z,3.20
2023-04-22T11:24:58.861Z,3.75
2023-04-22T11:27:26.527Z,3.08
2023-04-22T11:30:10.059Z,4.80
2023-04-22T11:32:39.579Z,2.72
2023-04-22T11:35:09.591Z,4.90
2023-04-22T11:37:52.316Z,3.83
2023-04-22T11:40:30.557Z,3.22
2023-04-22T11:42:59.362Z,3.17
2023-04-22T11:45:26.471Z,5.47
2023-04-22T11:47:53.568Z,4.95
2023-04-22T11:50:25.811Z,3.08
2023-04-22T11:53:00.829Z,4.35
2023-04-22T11:55:29.487Z,4.60
2023-04-22T11:58:25.900Z,3.25
2023-04-22T12:00:53.982Z,3.55
2023-04-22T12:03:25.897Z,4.50
2023-04-22T12:05:54.634Z,2.70
2023-04-22T12:08:41.194Z,7.50
2023-04-22T12:11:09.304Z,2.58
2023-04-22T12:13:38.693Z,3.72
2023-04-22T12:16:10.487Z,4.28
2023-04-22T12:18:39.464Z,3.83
2023-04-22T12:21:10.303Z,4.75
2023-04-22T12:23:53.010Z,3.72
2023-04-22T12:26:22.552Z,6.90
2023-04-22T12:28:50.893Z,4.10
2023-04-22T12:31:18.322Z,3.22
2023-04-22T12:33:45.898Z,2.10
2023-04-22T12:36:12.519Z,3.05
2023-04-22T12:38:39.038Z,4.63
2023-04-22T12:41:06.671Z,10.80
2023-04-22T12:43:34.006Z,2.58
2023-04-22T12:46:00.516Z,3.03
2023-04-22T12:48:26.900Z,3.45
2023-04-22T12:50:53.245Z,3.78
2023-04-22T12:53:21.343Z,3.92
2023-04-22T12:55:47.796Z,4.82
2023-04-22T12:58:14.234Z,4.55
2023-04-22T13:00:40.748Z,4.78
2023-04-22T13:03:07.193Z,4.35
2023-04-22T13:05:33.736Z,3.95
2023-04-22T13:08:07.035Z,2.80
2023-04-22T13:10:34.398Z,3.63
2023-04-22T13:13:15.430Z,3.10
2023-04-22T13:15:43.835Z,4.78
2023-04-22T13:18:10.197Z,4.72
2023-04-22T13:20:36.641Z,4.32
2023-04-22T13:23:02.970Z,3.88
2023-04-22T13:25:29.358Z,4.95
2023-04-22T13:27:55.715Z,4.32
2023-04-22T13:30:22.093Z,2.45
2023-04-22T13:32:48.418Z,2.35
2023-04-22T13:35:14.827Z,3.00
2023-04-22T13:37:41.123Z,3.65
2023-04-22T13:40:07.885Z,3.55
2023-04-22T13:42:34.178Z,4.78
2023-04-22T13:45:00.503Z,5.18
2023-04-22T13:47:26.903Z,5.13
2023-04-22T13:49:53.225Z,6.28
2023-04-22T13:52:19.526Z,4.57
2023-04-22T13:54:45.801Z,3.13
2023-04-22T13:57:12.113Z,2.85
2023-04-22T13:59:38.688Z,6.07
2023-04-22T14:02:05.260Z,3.88
2023-04-22T14:04:31.688Z,2.50
2023-04-22T14:06:58.049Z,5.72
2023-04-22T14:09:24.363Z,4.15
2023-04-22T14:11:50.707Z,5.80
2023-04-22T14:14:17.022Z,4.13
2023-04-22T14:16:43.375Z,4.43
2023-04-22T14:19:09.742Z,3.80
2023-04-22T14:21:36.061Z,3.83
2023-04-22T14:24:02.403Z,4.43
2023-04-22T14:26:28.731Z,3.97
2023-04-22T14:28:55.016Z,3.42
2023-04-22T14:31:21.384Z,2.45
2023-04-22T14:33:47.800Z,5.30
2023-04-22T14:36:14.126Z,4.53
2023-04-22T14:38:40.433Z,4.47
2023-04-22T14:41:06.827Z,3.60
2023-04-22T14:43:33.452Z,3.38
2023-04-22T14:46:00.294Z,4.38
2023-04-22T14:48:26.624Z,4.38
2023-04-22T14:50:53.333Z,3.83
2023-04-22T14:53:20.001Z,3.10
2023-04-22T14:55:46.365Z,3.38
2023-04-22T14:58:13.087Z,3.00
2023-04-22T15:00:39.470Z,3.00
2023-04-22T15:03:05.969Z,6.53
2023-04-22T15:05:32.428Z,6.68
2023-04-22T15:07:58.717Z,10.52
2023-04-22T15:10:25.257Z,4.47
2023-04-22T15:12:51.542Z,7.75
2023-04-22T15:15:17.895Z,4.90
2023-04-22T15:17:44.724Z,4.80
2023-04-22T15:20:12.246Z,4.47
2023-04-22T15:22:39.953Z,7.10
2023-04-22T15:25:07.766Z,4.22
2023-04-22T15:27:34.234Z,3.67
2023-04-22T15:30:00.567Z,5.47
2023-04-22T15:32:26.982Z,5.72
2023-04-22T15:34:53.293Z,3.15
2023-04-22T15:37:19.640Z,5.95
2023-04-22T15:39:45.986Z,11.38
2023-04-22T15:42:12.315Z,9.27
2023-04-22T15:44:38.633Z,4.18
2023-04-22T15:47:05.140Z,5.30
2023-04-22T15:49:31.608Z,3.80
2023-04-22T15:51:57.911Z,6.07
2023-04-22T15:54:24.219Z,11.35
2023-04-22T15:56:50.526Z,7.20
2023-04-22T15:59:16.832Z,6.75
2023-04-22T16:01:45.863Z,7.50
2023-04-22T16:04:13.156Z,7.60
2023-04-22T16:06:39.734Z,6.82
2023-04-22T16:09:06.309Z,4.15
2023-04-22T16:11:32.703Z,3.35
2023-04-22T16:13:59.023Z,4.30
2023-04-22T16:16:26.142Z,3.35
2023-04-22T16:18:52.677Z,7.78
2023-04-22T16:21:19.009Z,5.68
2023-04-22T16:23:45.333Z,4.72
2023-04-22T16:26:11.800Z,3.30
2023-04-22T16:28:38.125Z,5.68
2023-04-22T16:31:04.536Z,5.78
2023-04-22T16:33:33.232Z,2.85
2023-04-22T16:35:59.524Z,3.72
2023-04-22T16:38:25.844Z,2.53
2023-04-22T16:40:52.192Z,7.40
2023-04-22T16:43:18.488Z,5.47
2023-04-22T16:45:44.795Z,5.45
2023-04-22T16:48:11.093Z,7.72
2023-04-22T16:50:38.867Z,4.03
2023-04-22T16:53:05.174Z,5.72
2023-04-22T16:55:31.470Z,5.05
2023-04-22T16:57:57.790Z,5.75
2023-04-22T17:00:24.194Z,6.40
2023-04-22T17:02:50.612Z,11.68
2023-04-22T17:05:17.043Z,7.47
2023-04-22T17:07:43.344Z,7.47
2023-04-22T17:10:09.822Z,6.47
2023-04-22T17:12:36.246Z,7.40
2023-04-22T17:15:02.548Z,7.22
2023-04-22T17:17:28.887Z,8.25
2023-04-22T17:19:55.230Z,8.25
2023-04-22T17:22:21.562Z,9.50
2023-04-22T17:24:47.859Z,6.13
2023-04-22T17:27:14.182Z,9.80
2023-04-22T17:29:40.869Z,7.97
2023-04-22T17:32:07.362Z,9.10
2023-04-22T17:34:33.906Z,9.15
2023-04-22T17:37:00.237Z,9.75
2023-04-22T17:39:26.577Z,8.10
2023-04-22T17:41:52.916Z,10.50
2023-04-22T17:44:19.292Z,8.07
2023-04-22T17:46:45.655Z,7.28
2023-04-22T17:49:12.008Z,8.20
2023-04-22T17:51:38.365Z,8.73
2023-04-22T17:54:04.709Z,7.60
2023-04-22T17:56:31.052Z,8.85
2023-04-22T17:58:57.345Z,9.27
2023-04-22T18:01:23.884Z,9.15
2023-04-22T18:03:50.450Z,9.55
2023-04-22T18:06:16.994Z,8.93
2023-04-22T18:08:43.306Z,8.93
2023-04-22T18:11:09.695Z,8.43
2023-04-22T18:13:36.097Z,8.05
2023-04-22T18:16:02.431Z,7.97
2023-04-22T18:18:28.793Z,8.38
2023-04-22T18:20:55.179Z,5.88
2023-04-22T18:23:21.734Z,5.45
2023-04-22T18:25:48.049Z,5.53
2023-04-22T18:28:15.254Z,8.07
2023-04-22T18:30:41.764Z,5.63
2023-04-22T18:33:08.256Z,5.07
2023-04-22T18:35:34.755Z,4.35
2023-04-22T18:38:01.222Z,7.13
2023-04-22T18:40:29.574Z,6.45
2023-04-22T18:42:56.117Z,6.72
2023-04-22T18:45:23.880Z,7.70
2023-04-22T18:47:50.520Z,7.65
2023-04-22T18:50:16.901Z,6.03
2023-04-22T18:52:43.304Z,7.78
2023-04-22T18:55:12.458Z,7.80
2023-04-22T18:57:38.932Z,6.47
2023-04-22T19:00:06.217Z,8.18
2023-04-22T19:04:59.686Z,6.63
2023-04-22T19:07:26.237Z,7.43
2023-04-22T19:09:52.847Z,8.90
2023-04-22T19:12:19.185Z,5.53
2023-04-22T19:14:45.584Z,5.97
2023-04-22T19:17:12.007Z,6.28
2023-04-22T19:19:39.388Z,5.70
2023-04-22T19:22:06.113Z,5.93
2023-04-22T19:24:32.480Z,5.28
2023-04-22T19:26:59.949Z,7.97
2023-04-22T19:29:26.248Z,6.05
2023-04-22T19:31:52.598Z,7.85
2023-04-22T19:34:18.990Z,6.30
2023-04-22T19:36:45.368Z,5.78
2023-04-22T19:39:11.684Z,8.52
2023-04-22T19:41:38.067Z,6.28
2023-04-22T19:44:04.427Z,5.20
2023-04-22T19:46:30.852Z,7.97
2023-04-22T19:48:57.503Z,7.10
2023-04-22T19:51:23.992Z,7.63
2023-04-22T19:53:51.701Z,8.55
2023-04-22T19:56:18.630Z,6.97
2023-04-22T19:58:45.828Z,7.43
2023-04-22T20:01:12.366Z,6.30
2023-04-22T20:03:39.099Z,5.50
2023-04-22T20:06:06.423Z,7.40
2023-04-22T20:08:33.484Z,8.63
2023-04-22T20:11:00.966Z,5.50
2023-04-22T20:13:27.655Z,6.75
2023-04-22T20:15:54.176Z,8.10
2023-04-22T20:18:20.692Z,5.05
2023-04-22T20:20:48.526Z,6.43
2023-04-22T20:23:17.197Z,5.25
2023-04-22T20:25:43.865Z,6.40
2023-04-22T20:28:10.393Z,8.77
2023-04-22T20:30:37.210Z,5.65
2023-04-22T20:33:03.746Z,8.45
2023-04-22T20:35:30.495Z,5.07
2023-04-22T20:37:59.378Z,4.65
2023-04-22T20:40:26.857Z,6.28
2023-04-22T20:42:56.956Z,6.38
2023-04-22T20:45:23.293Z,5.38
2023-04-22T20:47:49.678Z,4.72
2023-04-22T20:50:16.187Z,6.22
2023-04-22T20:52:42.593Z,7.53
2023-04-22T20:55:09.217Z,6.88
2023-04-22T20:57:35.868Z,7.22
2023-04-22T21:00:02.207Z,6.50
2023-04-22T21:02:29.406Z,5.10
2023-04-22T21:05:00.241Z,5.45
2023-04-22T21:07:27.559Z,7.90
2023-04-22T21:09:54.027Z,5.97
2023-04-22T21:12:28.161Z,8.07
2023-04-22T21:14:55.217Z,5.93
2023-04-22T21:17:27.752Z,6.63
2023-04-22T21:20:03.786Z,7.22
2023-04-22T21:22:30.783Z,6.72
2023-04-22T21:24:58.556Z,9.25
2023-04-22T21:27:25.113Z,6.40
2023-04-22T21:29:51.698Z,8.05
2023-04-22T21:32:18.497Z,7.45
2023-04-22T21:34:45.314Z,9.95
2023-04-22T21:37:12.496Z,9.38
2023-04-22T21:39:45.027Z,8.68
2023-04-22T21:42:11.548Z,9.65
2023-04-22T21:44:38.342Z,7.55
2023-04-22T21:47:05.212Z,8.30
2023-04-22T21:49:34.899Z,8.63
2023-04-22T21:52:01.459Z,11.20
2023-04-22T21:54:27.898Z,9.57
2023-04-22T21:56:54.218Z,11.70
2023-04-22T21:59:20.552Z,12.02
2023-04-22T22:01:46.940Z,12.20
2023-04-22T22:04:15.680Z,11.07
2023-04-22T22:06:43.306Z,12.45
2023-04-22T22:09:09.668Z,12.50
2023-04-22T22:11:36.107Z,12.30
2023-04-22T22:14:02.494Z,13.23
2023-04-22T22:16:28.964Z,11.20
2023-04-22T22:18:56.476Z,11.98
2023-04-22T22:21:22.776Z,13.98
2023-04-22T22:23:49.347Z,13.13
2023-04-22T22:26:15.886Z,14.02
2023-04-22T22:28:42.293Z,13.73
2023-04-22T22:31:08.653Z,12.85
2023-04-22T22:33:35.149Z,14.25
2023-04-22T22:36:01.912Z,13.40
2023-04-22T22:38:28.296Z,12.75
2023-04-22T22:40:54.601Z,10.27
2023-04-22T22:43:21.080Z,10.07
2023-04-22T22:45:47.644Z,11.63
2023-04-22T22:48:14.418Z,9.48
2023-04-22T22:50:40.856Z,11.02
2023-04-22T22:53:07.167Z,11.23
2023-04-22T22:55:33.511Z,11.27
2023-04-22T22:57:59.969Z,10.70
2023-04-22T23:00:26.364Z,11.07
2023-04-22T23:02:52.870Z,15.18
2023-04-22T23:05:19.667Z,11.63
2023-04-22T23:07:46.010Z,11.30
2023-04-22T23:10:12.413Z,13.80
2023-04-22T23:12:38.786Z,11.77
2023-04-22T23:15:06.054Z,13.98
2023-04-22T23:17:32.425Z,14.98
2023-04-22T23:20:00.499Z,15.32
2023-04-22T23:22:33.969Z,15.52
2023-04-22T23:25:01.828Z,17.25
2023-04-22T23:27:31.151Z,18.98
2023-04-22T23:30:00.652Z,17.60
2023-04-22T23:32:28.918Z,21.20
2023-04-22T23:34:57.744Z,20.23
2023-04-22T23:37:27.749Z,17.20
2023-04-22T23:39:54.148Z,21.23
2023-04-22T23:42:20.456Z,22.38
2023-04-22T23:44:46.796Z,21.90
2023-04-22T23:47:13.109Z,20.63
2023-04-22T23:49:39.560Z,20.23
2023-04-22T23:52:05.872Z,21.08
2023-04-22T23:54:32.473Z,19.98
2023-04-22T23:56:59.208Z,22.23
2023-04-22T23:59:25.826Z,22.17
